Time;durP1;ratioP1;P1;durP2;ratioP2;P2;SDS_P1;SDS_P2;PMS_P1;PMS_P2;Temp;Humidity;BMP_temperature;BMP_pressure;BME280_temperature;BME280_humidity;BME280_pressure;Samples;Min_cycle;Max_cycle;Signal;HPM_P1;HPM_P2
2022/05/01 00:02:15;;;;;;;29.42;13.55;;;;;;;7.55;100.00;102493.78;5205305;28;20052;-69
2022/05/01 00:04:45;;;;;;;25.92;12.95;;;;;;;7.48;100.00;102499.53;5204707;28;20027;-69
2022/05/01 00:07:16;;;;;;;22.02;12.45;;;;;;;7.43;100.00;102498.13;5204867;28;20022;-70
2022/05/01 00:09:46;;;;;;;23.25;12.25;;;;;;;7.39;100.00;102499.31;5204924;28;20493;-69
2022/05/01 00:12:17;;;;;;;25.77;12.45;;;;;;;7.31;100.00;102502.50;5204779;28;20036;-69
2022/05/01 00:14:47;;;;;;;27.05;13.68;;;;;;;7.23;100.00;102499.50;5202814;28;20040;-69
2022/05/01 00:17:18;;;;;;;31.50;13.60;;;;;;;7.18;100.00;102504.31;5204766;28;20030;-69
2022/05/01 00:19:48;;;;;;;29.42;14.32;;;;;;;7.08;100.00;102497.84;5204588;28;20033;-70
2022/05/01 00:22:19;;;;;;;28.73;13.63;;;;;;;6.99;100.00;102494.00;5203960;28;20379;-70
2022/05/01 00:24:49;;;;;;;27.77;14.82;;;;;;;6.96;100.00;102497.72;5204306;28;20056;-69
2022/05/01 00:27:20;;;;;;;25.90;13.68;;;;;;;6.91;100.00;102497.19;5204204;28;20040;-69
2022/05/01 00:29:50;;;;;;;29.73;14.57;;;;;;;6.83;100.00;102499.50;5203220;28;20113;-70
2022/05/01 00:32:21;;;;;;;28.63;14.88;;;;;;;6.75;100.00;102496.50;5204363;28;20061;-70
2022/05/01 00:37:40;;;;;;;31.92;15.32;;;;;;;6.57;100.00;102489.69;5198393;28;20034;-70
2022/05/01 00:40:11;;;;;;;40.65;16.25;;;;;;;6.46;100.00;102493.06;5194040;28;20043;-70
2022/05/01 00:42:41;;;;;;;36.45;16.25;;;;;;;6.48;100.00;102486.69;5204415;28;20017;-70
2022/05/01 00:45:12;;;;;;;40.95;15.73;;;;;;;6.41;100.00;102485.34;5204236;28;20032;-70
2022/05/01 00:47:42;;;;;;;30.95;15.05;;;;;;;6.30;100.00;102484.34;5204044;28;20084;-70
2022/05/01 00:50:13;;;;;;;36.67;17.00;;;;;;;6.14;100.00;102490.66;5202721;28;20119;-70
2022/05/01 00:52:43;;;;;;;36.75;16.33;;;;;;;5.97;100.00;102486.41;5204251;28;20068;-70
2022/05/01 00:55:15;;;;;;;38.60;16.80;;;;;;;5.80;100.00;102486.56;5203980;28;20032;-70
2022/05/01 00:57:47;;;;;;;40.47;17.13;;;;;;;5.65;100.00;102484.84;5204492;28;20479;-69
2022/05/01 01:00:19;;;;;;;34.15;17.77;;;;;;;5.52;100.00;102475.88;5203903;28;20037;-69
2022/05/01 01:02:50;;;;;;;40.50;15.77;;;;;;;5.44;100.00;102479.88;5203800;28;20028;-69
2022/05/01 01:05:21;;;;;;;39.47;16.58;;;;;;;5.49;100.00;102481.41;5204081;28;20433;-69
2022/05/01 01:08:02;;;;;;;38.20;17.17;;;;;;;5.50;100.00;102478.63;5204676;28;20017;-70
2022/05/01 01:10:37;;;;;;;;;;;;;;;5.40;100.00;102478.34;5204634;28;20044;-69
2022/05/01 01:13:08;;;;;;;32.75;16.67;;;;;;;5.18;100.00;102486.78;5203943;28;19909;-69
2022/05/01 01:15:38;;;;;;;30.80;15.88;;;;;;;4.84;100.00;102492.34;5204091;28;20043;-69
2022/05/01 01:18:09;;;;;;;46.40;17.08;;;;;;;4.64;100.00;102488.19;5203926;28;20021;-69
2022/05/01 01:20:42;;;;;;;47.35;18.38;;;;;;;4.51;100.00;102484.50;5203896;28;20025;-69
2022/05/01 01:23:13;;;;;;;44.65;19.15;;;;;;;4.41;100.00;102487.66;5203814;28;20021;-69
2022/05/01 01:25:45;;;;;;;38.65;17.73;;;;;;;4.36;100.00;102486.22;5203996;28;20487;-69
2022/05/01 01:28:18;;;;;;;38.72;18.35;;;;;;;4.32;100.00;102479.38;5203620;28;20124;-69
2022/05/01 01:33:42;;;;;;;36.65;17.38;;;;;;;4.35;100.00;102480.06;5207171;28;20033;-69
2022/05/01 01:36:14;;;;;;;42.55;19.33;;;;;;;4.35;100.00;102479.19;5205815;28;20463;-69
2022/05/01 01:38:45;;;;;;;41.38;18.25;;;;;;;4.33;100.00;102470.47;5194396;28;20032;-69
2022/05/01 01:41:21;;;;;;;38.83;17.38;;;;;;;4.33;100.00;102481.94;5206308;28;20025;-69
2022/05/01 01:43:53;;;;;;;39.78;18.17;;;;;;;4.38;100.00;102482.56;5207861;28;20025;-69
2022/05/01 01:46:24;;;;;;;38.97;17.00;;;;;;;4.44;100.00;102478.69;5207498;28;20505;-69
2022/05/01 01:48:55;;;;;;;43.45;18.60;;;;;;;4.44;100.00;102480.50;5207697;28;20035;-69
2022/05/01 01:51:26;;;;;;;38.22;17.98;;;;;;;4.47;100.00;102477.66;5207741;28;20411;-69
2022/05/01 01:53:57;;;;;;;47.60;19.42;;;;;;;4.47;100.00;102470.56;5207901;28;20022;-69
2022/05/01 01:56:32;;;;;;;44.35;20.73;;;;;;;4.43;100.00;102481.44;5207854;28;20033;-69
2022/05/01 01:59:03;;;;;;;42.20;18.95;;;;;;;4.30;100.00;102482.13;5207256;28;20067;-69
2022/05/01 02:01:34;;;;;;;39.08;17.25;;;;;;;4.14;100.00;102474.16;5207409;28;20025;-70
2022/05/01 02:04:06;;;;;;;37.30;16.58;;;;;;;4.01;100.00;102470.44;5207182;28;20079;-70
2022/05/01 02:06:37;;;;;;;36.55;17.50;;;;;;;3.95;100.00;102468.13;5207794;28;20021;-69
2022/05/01 02:09:08;;;;;;;41.85;17.85;;;;;;;3.92;100.00;102470.13;5207149;28;20079;-69
2022/05/01 02:11:40;;;;;;;59.35;19.73;;;;;;;3.85;100.00;102472.22;5207098;28;20029;-70
2022/05/01 02:14:11;;;;;;;38.25;17.35;;;;;;;3.73;100.00;102462.28;5207385;28;20018;-69
2022/05/01 02:16:42;;;;;;;33.58;15.90;;;;;;;3.63;100.00;102464.56;5207463;28;20382;-69
2022/05/01 02:19:13;;;;;;;28.25;14.50;;;;;;;3.49;100.00;102461.78;5207154;28;20022;-69
2022/05/01 02:21:44;;;;;;;40.33;18.60;;;;;;;3.36;100.00;102459.78;5206728;28;20439;-69
2022/05/01 02:24:15;;;;;;;349.27;26.08;;;;;;;3.23;100.00;102457.84;5206887;28;20026;-70
2022/05/01 02:26:46;;;;;;;38.88;15.80;;;;;;;3.08;100.00;102465.66;5207087;28;20029;-70
2022/05/01 02:29:17;;;;;;;42.88;18.95;;;;;;;3.00;100.00;102456.38;5206784;28;20017;-70
2022/05/01 02:31:53;;;;;;;40.08;17.80;;;;;;;2.97;100.00;102465.34;5207057;28;20025;-70
2022/05/01 02:34:24;;;;;;;47.55;22.67;;;;;;;3.06;100.00;102450.75;5206316;28;20029;-70
2022/05/01 02:36:55;;;;;;;50.22;21.38;;;;;;;3.05;100.00;102456.97;5206879;28;20029;-70
2022/05/01 02:39:25;;;;;;;45.85;19.85;;;;;;;2.97;100.00;102449.44;5193267;28;20020;-69
2022/05/01 02:41:56;;;;;;;54.22;21.38;;;;;;;2.90;100.00;102444.50;5206922;28;20512;-70
2022/05/01 02:44:26;;;;;;;48.05;19.95;;;;;;;2.88;100.00;102446.41;5205792;28;20037;-70
2022/05/01 02:46:57;;;;;;;52.67;21.25;;;;;;;2.99;100.00;102446.69;5206509;28;20112;-70
2022/05/01 02:49:27;;;;;;;43.80;19.67;;;;;;;2.98;100.00;102442.34;5206630;28;20017;-70
2022/05/01 02:51:58;;;;;;;49.72;19.92;;;;;;;2.87;100.00;102447.34;5206567;28;20037;-69
2022/05/01 02:54:29;;;;;;;50.53;20.60;;;;;;;2.81;100.00;102445.81;5206308;28;20486;-68
2022/05/01 02:57:00;;;;;;;45.72;19.90;;;;;;;2.74;100.00;102439.97;5206466;28;20022;-67
2022/05/01 02:59:30;;;;;;;46.90;20.45;;;;;;;2.72;100.00;102441.00;5206129;28;20017;-69
2022/05/01 03:02:01;;;;;;;51.28;20.45;;;;;;;2.63;100.00;102444.13;5206381;28;20360;-69
2022/05/01 03:04:32;;;;;;;51.00;21.33;;;;;;;2.56;100.00;102439.13;5206061;28;20475;-69
2022/05/01 03:07:04;;;;;;;61.53;22.95;;;;;;;2.53;100.00;102431.31;5205083;28;20025;-69
2022/05/01 03:09:34;;;;;;;53.58;22.67;;;;;;;2.55;100.00;102433.88;5205943;28;20059;-68
2022/05/01 03:12:06;;;;;;;53.13;21.85;;;;;;;2.53;100.00;102433.09;5206101;28;20475;-69
2022/05/01 03:14:36;;;;;;;50.92;20.40;;;;;;;2.50;100.00;102430.59;5205683;28;20030;-69
2022/05/01 03:17:07;;;;;;;55.75;20.65;;;;;;;2.50;100.00;102430.59;5206068;28;20021;-69
2022/05/01 03:22:27;;;;;;;45.70;19.42;;;;;;;2.41;100.00;102425.75;5206008;28;20109;-68
2022/05/01 03:24:58;;;;;;;47.03;20.15;;;;;;;2.30;100.00;102420.97;5205786;28;20112;-69
2022/05/01 03:27:28;;;;;;;50.60;19.85;;;;;;;2.24;100.00;102427.44;5206050;28;20128;-69
2022/05/01 03:32:48;;;;;;;56.90;23.10;;;;;;;2.16;100.00;102412.84;5205423;28;20519;-68
2022/05/01 03:35:19;;;;;;;58.47;23.73;;;;;;;2.14;100.00;102412.91;5205747;28;20032;-68
2022/05/01 03:37:50;;;;;;;48.33;20.50;;;;;;;2.11;100.00;102412.19;5201339;28;20018;-68
2022/05/01 03:40:21;;;;;;;52.40;21.08;;;;;;;2.06;100.00;102412.44;5205662;28;20107;-68
2022/05/01 03:42:51;;;;;;;52.65;21.75;;;;;;;2.02;100.00;102413.53;5205499;28;20060;-68
2022/05/01 03:45:22;;;;;;;52.40;20.73;;;;;;;1.94;100.00;102407.72;5205248;28;20021;-69
2022/05/01 03:47:52;;;;;;;47.88;19.85;;;;;;;1.90;100.00;102411.44;5205672;28;20076;-70
2022/05/01 03:50:23;;;;;;;66.50;23.13;;;;;;;1.86;100.00;102409.84;5205592;28;20059;-70
2022/05/01 03:52:53;;;;;;;61.03;23.98;;;;;;;1.82;100.00;102411.81;5205466;28;20025;-70
2022/05/01 03:55:25;;;;;;;53.58;22.58;;;;;;;1.75;100.00;102411.22;5204089;28;20041;-70
2022/05/01 03:57:55;;;;;;;56.72;23.10;;;;;;;1.72;100.00;102408.72;5205118;28;20021;-70
2022/05/01 04:00:27;;;;;;;49.63;21.70;;;;;;;1.68;100.00;102407.16;5205433;28;20394;-70
2022/05/01 04:02:58;;;;;;;55.20;22.08;;;;;;;1.67;100.00;102407.22;5205284;28;20052;-69
2022/05/01 04:05:28;;;;;;;56.33;23.77;;;;;;;1.63;100.00;102409.16;5204782;28;20033;-70
2022/05/01 04:07:59;;;;;;;58.45;23.92;;;;;;;1.59;100.00;102402.28;5204793;28;20036;-71
2022/05/01 04:10:29;;;;;;;60.35;22.95;;;;;;;1.54;100.00;102402.47;5204984;28;20037;-71
2022/05/01 04:13:00;;;;;;;58.58;22.90;;;;;;;1.51;100.00;102407.06;5205248;28;20100;-70
2022/05/01 04:15:30;;;;;;;53.25;22.33;;;;;;;1.50;100.00;102408.84;5204539;28;20017;-69
2022/05/01 04:18:02;;;;;;;55.67;22.10;;;;;;;1.50;100.00;102410.63;5204850;28;20529;-69
2022/05/01 04:20:33;;;;;;;58.22;22.92;;;;;;;1.46;100.00;102407.28;5204331;28;20533;-69
2022/05/01 04:23:05;;;;;;;58.83;22.30;;;;;;;1.44;100.00;102409.13;5205017;28;20029;-69
2022/05/01 04:25:36;;;;;;;57.33;21.52;;;;;;;1.43;100.00;102406.56;5204549;28;20088;-69
2022/05/01 04:28:09;;;;;;;53.85;21.85;;;;;;;1.40;100.00;102406.69;5204465;28;20021;-69
2022/05/01 04:30:40;;;;;;;48.67;21.23;;;;;;;1.39;100.00;102408.47;5204716;28;20028;-69
2022/05/01 04:33:13;;;;;;;49.00;21.00;;;;;;;1.36;100.00;102405.97;5204393;28;20080;-69
2022/05/01 04:35:47;;;;;;;52.28;21.70;;;;;;;1.37;100.00;102412.97;5203097;28;20021;-69
2022/05/01 04:38:19;;;;;;;57.08;21.60;;;;;;;1.39;100.00;102405.81;5194765;28;20022;-68
2022/05/01 04:40:53;;;;;;;55.55;20.90;;;;;;;1.41;100.00;102406.63;5199069;28;20033;-69
2022/05/01 04:43:26;;;;;;;44.65;17.65;;;;;;;1.45;100.00;102409.97;5204165;28;20036;-68
2022/05/01 04:45:58;;;;;;;47.20;19.08;;;;;;;1.48;100.00;102408.06;5204001;28;20032;-68
2022/05/01 04:48:29;;;;;;;44.35;19.27;;;;;;;1.51;100.00;102412.38;5204500;28;20028;-68
2022/05/01 04:51:00;;;;;;;44.13;19.23;;;;;;;1.55;100.00;102400.69;5204228;28;20116;-68
2022/05/01 04:53:31;;;;;;;43.50;18.52;;;;;;;1.57;100.00;102413.88;5204405;28;20040;-68
2022/05/01 04:57:05;;;;;;;48.72;20.63;;;;;;;1.62;100.00;102419.81;5203877;28;20033;-68
2022/05/01 04:58:51;;;;;;;56.53;21.88;;;;;;;1.62;100.00;102422.47;5204043;28;20075;-67
2022/05/01 05:01:22;;;;;;;50.78;20.63;;;;;;;1.66;100.00;102422.25;5203996;28;20029;-68
2022/05/01 05:03:52;;;;;;;48.97;21.08;;;;;;;1.72;100.00;102421.97;5203916;28;20087;-68
2022/05/01 05:06:24;;;;;;;50.60;21.52;;;;;;;1.77;100.00;102424.41;5203462;28;20075;-68
2022/05/01 05:11:43;;;;;;;52.47;22.23;;;;;;;1.93;100.00;102429.81;5204007;28;20109;-68
2022/05/01 05:14:14;;;;;;;57.53;23.33;;;;;;;2.00;100.00;102431.25;5203874;28;20439;-68
2022/05/01 05:16:44;;;;;;;48.42;20.95;;;;;;;2.07;100.00;102437.97;5203400;28;20116;-68
2022/05/01 05:19:15;;;;;;;62.17;23.70;;;;;;;2.04;100.00;102444.25;5203815;28;20048;-68
2022/05/01 05:21:45;;;;;;;53.58;21.58;;;;;;;2.04;100.00;102446.06;5203765;28;20494;-68
2022/05/01 05:24:15;;;;;;;56.78;22.70;;;;;;;2.18;100.00;102438.31;5203677;28;20022;-68
2022/05/01 05:26:46;;;;;;;65.55;26.08;;;;;;;2.34;100.00;102441.94;5203624;28;20494;-68
2022/05/01 05:29:18;;;;;;;58.53;24.45;;;;;;;2.51;100.00;102450.84;5203046;28;20439;-68
2022/05/01 05:31:48;;;;;;;65.97;26.17;;;;;;;2.64;100.00;102451.97;5203813;28;20147;-68
2022/05/01 05:34:19;;;;;;;70.88;29.02;;;;;;;2.78;100.00;102460.09;5203453;28;20025;-68
2022/05/01 05:36:49;;;;;;;83.03;29.48;;;;;;;2.93;100.00;102460.28;5202552;28;20025;-68
2022/05/01 05:39:20;;;;;;;75.50;31.50;;;;;;;3.15;100.00;102466.19;5188473;28;20120;-68
2022/05/01 05:41:50;;;;;;;86.35;31.88;;;;;;;3.36;100.00;102464.22;5203269;28;20479;-68
2022/05/01 05:44:21;;;;;;;83.93;32.15;;;;;;;3.57;100.00;102467.56;5203356;28;20056;-68
2022/05/01 05:46:51;;;;;;;91.43;35.10;;;;;;;3.82;100.00;102472.41;5203550;28;20036;-68
2022/05/01 05:49:22;;;;;;;84.82;32.40;;;;;;;4.04;100.00;102470.28;5203655;28;20112;-68
2022/05/01 05:51:52;;;;;;;77.65;29.83;;;;;;;4.48;100.00;102474.91;5204095;28;20063;-68
2022/05/01 05:54:23;;;;;;;77.25;31.30;;;;;;;5.14;100.00;102468.41;5202833;28;20064;-68
2022/05/01 05:56:53;;;;;;;71.57;30.20;;;;;;;6.14;100.00;102469.34;5203360;28;20053;-68
2022/05/01 05:59:24;;;;;;;63.85;28.98;;;;;;;7.13;100.00;102469.03;5203593;28;20021;-68
2022/05/01 06:01:54;;;;;;;55.90;25.70;;;;;;;7.71;100.00;102470.34;5203378;28;20033;-69
2022/05/01 06:04:25;;;;;;;44.92;23.83;;;;;;;8.36;100.00;102469.25;5203291;28;20021;-69
2022/05/01 06:06:56;;;;;;;51.00;25.08;;;;;;;8.56;100.00;102455.31;5202966;28;20078;-68
2022/05/01 06:09:26;;;;;;;43.67;24.67;;;;;;;8.85;100.00;102462.97;5203515;28;20022;-69
2022/05/01 06:11:56;;;;;;;43.17;23.63;;;;;;;9.67;100.00;102463.75;5203305;28;20032;-69
2022/05/01 06:14:27;;;;;;;41.40;22.67;;;;;;;10.61;100.00;102468.69;5202992;28;20025;-69
2022/05/01 06:16:57;;;;;;;38.88;21.05;;;;;;;11.05;100.00;102462.28;5203460;28;20026;-69
2022/05/01 06:19:28;;;;;;;49.10;26.75;;;;;;;10.56;100.00;102466.38;5204482;28;20028;-69
2022/05/01 06:21:58;;;;;;;42.08;23.17;;;;;;;10.40;100.00;102468.63;5207010;28;20039;-69
2022/05/01 06:24:29;;;;;;;51.72;31.05;;;;;;;10.38;100.00;102470.56;5206726;28;20096;-69
2022/05/01 06:26:59;;;;;;;38.72;22.30;;;;;;;10.56;100.00;102463.69;5206989;28;20398;-69
2022/05/01 06:29:30;;;;;;;37.80;21.77;;;;;;;10.99;100.00;102460.09;5206657;28;20045;-69
2022/05/01 06:32:00;;;;;;;42.00;24.50;;;;;;;11.39;100.00;102462.06;5206783;28;20037;-69
2022/05/01 06:34:31;;;;;;;37.17;22.98;;;;;;;12.52;100.00;102462.78;5206578;28;20116;-69
2022/05/01 06:37:01;;;;;;;47.78;23.35;;;;;;;12.45;100.00;102472.44;5205762;28;20083;-69
2022/05/01 06:39:33;;;;;;;40.75;25.83;;;;;;;12.15;100.00;102463.44;5191436;28;20438;-69
2022/05/01 06:42:03;;;;;;;39.53;24.80;;;;;;;12.27;100.00;102466.84;5206578;28;20032;-69
2022/05/01 06:44:34;;;;;;;40.47;24.05;;;;;;;12.42;100.00;102465.47;5206771;28;20033;-69
2022/05/01 06:47:05;;;;;;;42.85;25.25;;;;;;;12.96;100.00;102460.56;5206660;28;20029;-69
2022/05/01 06:49:36;;;;;;;41.72;23.80;;;;;;;13.23;100.00;102461.69;5206810;28;20254;-69
2022/05/01 06:52:06;;;;;;;43.40;24.25;;;;;;;13.80;100.00;102457.09;5206451;28;20488;-69
2022/05/01 06:54:37;;;;;;;38.13;23.70;;;;;;;14.02;100.00;102453.19;5205934;28;20092;-69
2022/05/01 06:57:07;;;;;;;40.03;23.17;;;;;;;14.41;100.00;102465.47;5206648;28;20041;-69
2022/05/01 06:59:38;;;;;;;43.28;23.45;;;;;;;14.59;100.00;102457.41;5206794;28;20390;-69
2022/05/01 07:02:08;;;;;;;39.72;22.77;;;;;;;15.06;100.00;102462.56;5206285;28;20022;-69
2022/05/01 07:04:38;;;;;;;38.95;23.17;;;;;;;14.44;100.00;102461.59;5206145;28;20028;-69
2022/05/01 07:07:09;;;;;;;34.35;22.33;;;;;;;15.16;100.00;102460.63;5205877;28;20120;-69
2022/05/01 07:09:39;;;;;;;31.85;20.98;;;;;;;15.93;100.00;102469.75;5206299;28;20048;-70
2022/05/01 07:12:11;;;;;;;29.15;18.45;;;;;;;16.32;100.00;102463.81;5205182;28;20438;-69
2022/05/01 07:14:43;;;;;;;31.35;19.88;;;;;;;16.90;100.00;102467.47;5205618;28;20021;-70
2022/05/01 07:17:13;;;;;;;34.08;20.00;;;;;;;16.21;100.00;102461.38;5206626;28;20029;-69
2022/05/01 07:19:44;;;;;;;28.38;17.88;;;;;;;17.25;95.85;102461.72;5205681;28;20348;-70
2022/05/01 07:22:16;;;;;;;25.40;15.95;;;;;;;17.16;94.57;102460.00;5206161;28;20033;-70
2022/05/01 07:24:47;;;;;;;30.48;18.38;;;;;;;16.55;100.00;102464.84;5205604;28;20108;-70
2022/05/01 07:27:17;;;;;;;31.63;19.90;;;;;;;15.55;100.00;102460.19;5206109;28;20120;-70
2022/05/01 07:29:48;;;;;;;29.48;18.75;;;;;;;15.97;100.00;102457.59;5205506;28;20104;-70
2022/05/01 07:32:18;;;;;;;32.42;19.85;;;;;;;16.60;100.00;102461.66;5206116;28;20025;-70
2022/05/01 07:34:49;;;;;;;30.08;18.65;;;;;;;15.96;100.00;102463.16;5206043;28;20025;-70
2022/05/01 07:37:22;;;;;;;28.33;18.70;;;;;;;15.46;100.00;102451.22;5203647;28;20503;-70
2022/05/01 07:39:54;;;;;;;28.95;17.27;;;;;;;14.92;100.00;102460.44;5193124;28;20471;-70
2022/05/01 07:42:24;;;;;;;26.98;17.15;;;;;;;15.09;100.00;102464.94;5205520;28;20387;-70
2022/05/01 07:44:55;;;;;;;25.27;15.98;;;;;;;16.08;100.00;102461.84;5205148;28;20030;-70
2022/05/01 07:47:25;;;;;;;29.27;16.83;;;;;;;16.58;100.00;102467.25;5205744;28;20021;-70
2022/05/01 07:49:56;;;;;;;24.80;16.33;;;;;;;17.05;99.04;102460.38;5205439;28;20100;-70
2022/05/01 07:52:26;;;;;;;27.23;16.58;;;;;;;16.30;100.00;102457.69;5205255;28;20040;-70
2022/05/01 07:54:57;;;;;;;27.27;17.42;;;;;;;15.58;100.00;102453.63;5205063;28;20021;-70
2022/05/01 07:57:28;;;;;;;29.77;16.70;;;;;;;15.71;100.00;102451.34;5205143;28;20130;-70
2022/05/01 07:59:58;;;;;;;21.08;14.13;;;;;;;17.94;88.37;102450.38;5205439;28;20037;-70
2022/05/01 08:04:27;;;;;;;26.40;15.48;;;;;;;17.53;92.08;102448.63;5205410;28;20352;-70
2022/05/01 08:05:29;;;;;;;21.63;13.93;;;;;;;17.17;93.50;102453.59;5204424;28;20030;-70
2022/05/01 08:08:00;;;;;;;24.17;14.77;;;;;;;17.18;92.74;102454.44;5205110;28;20029;-70
2022/05/01 08:10:32;;;;;;;23.42;14.10;;;;;;;17.27;87.12;102440.72;5205052;28;20033;-70
2022/05/01 08:13:03;;;;;;;19.10;11.82;;;;;;;17.11;97.02;102454.25;5205244;28;20021;-70
2022/05/01 08:15:33;;;;;;;19.40;12.15;;;;;;;18.50;74.31;102448.38;5199270;28;20021;-70
2022/05/01 08:23:43;;;;;;;22.80;13.15;;;;;;;17.39;90.88;102445.75;5191644;28;20475;-70
2022/05/01 08:26:14;;;;;;;21.40;12.30;;;;;;;16.93;86.04;102446.31;5204594;28;20047;-70
2022/05/01 08:28:46;;;;;;;18.77;12.90;;;;;;;17.35;88.74;102446.09;5204477;28;20021;-70
2022/05/01 08:31:16;;;;;;;20.90;12.68;;;;;;;19.69;68.14;102444.16;5204711;28;20104;-70
2022/05/01 08:33:47;;;;;;;18.05;12.05;;;;;;;18.78;69.92;102444.16;5204557;28;20553;-70
2022/05/01 08:36:17;;;;;;;15.13;10.50;;;;;;;18.30;69.97;102451.56;5202258;28;20056;-70
2022/05/01 08:38:48;;;;;;;20.30;12.60;;;;;;;17.06;80.37;102448.50;5190042;28;20018;-70
2022/05/01 08:41:18;;;;;;;23.77;12.38;;;;;;;16.18;88.51;102445.47;5203454;28;20471;-70
2022/05/01 08:43:51;;;;;;;21.75;13.05;;;;;;;15.52;94.49;102444.31;5203981;28;20577;-70
2022/05/01 08:46:36;;;;;;;21.17;13.48;;;;;;;14.54;100.00;102442.66;5204606;28;20053;-70
2022/05/01 08:49:08;;;;;;;23.00;14.15;;;;;;;14.69;100.00;102441.13;5204534;28;20554;-70
2022/05/01 08:51:41;;;;;;;19.70;12.73;;;;;;;14.98;100.00;102430.91;5204091;28;20386;-70
2022/05/01 08:54:15;;;;;;;20.13;12.48;;;;;;;14.89;100.00;102436.41;5203740;28;20017;-70
2022/05/01 08:56:46;;;;;;;19.17;13.07;;;;;;;14.54;97.80;102437.25;5204572;28;20060;-70
2022/05/01 08:59:17;;;;;;;21.40;13.05;;;;;;;13.53;100.00;102433.66;5204119;28;20026;-69
2022/05/01 09:01:48;;;;;;;22.67;13.80;;;;;;;13.53;100.00;102431.81;5202492;28;20094;-69
2022/05/01 09:04:18;;;;;;;22.40;12.45;;;;;;;13.62;100.00;102439.03;5203667;28;20033;-69
2022/05/01 09:06:56;;;;;;;21.25;10.77;;;;;;;13.97;100.00;102441.00;5203933;28;20104;-69
2022/05/01 09:09:26;;;;;;;18.15;11.60;;;;;;;13.87;100.00;102437.50;5203996;28;20033;-69
2022/05/01 09:14:46;;;;;;;23.60;11.82;;;;;;;14.02;100.00;102442.41;5203857;28;20500;-70
2022/05/01 09:17:19;;;;;;;18.45;10.98;;;;;;;14.05;100.00;102445.63;5203926;28;20028;-70
2022/05/01 09:19:53;;;;;;;25.23;13.00;;;;;;;13.73;100.00;102446.06;5203833;28;20025;-69
2022/05/01 09:22:24;;;;;;;23.10;11.50;;;;;;;13.65;100.00;102438.72;5203700;28;20025;-69
2022/05/01 09:24:54;;;;;;;21.70;12.15;;;;;;;13.81;100.00;102437.25;5203425;28;20502;-69
2022/05/01 09:27:40;;;;;;;16.88;9.95;;;;;;;14.46;100.00;102441.56;5203854;28;20471;-70
2022/05/01 09:30:45;;;;;;;17.33;10.27;;;;;;;15.14;79.49;102446.41;5203958;28;20091;-69
2022/05/01 09:33:19;;;;;;;18.75;9.32;;;;;;;15.41;81.73;102436.44;5203969;28;20608;-69
2022/05/01 09:35:50;;;;;;;16.57;10.10;;;;;;;15.72;78.43;102444.97;5203604;28;20052;-69
2022/05/01 09:38:22;;;;;;;16.95;9.57;;;;;;;15.96;78.79;102439.63;5195281;28;20025;-69
2022/05/01 09:40:57;;;;;;;16.30;9.40;;;;;;;16.57;73.13;102434.91;5199049;28;20026;-69
2022/05/01 09:43:42;;;;;;;14.50;9.45;;;;;;;16.85;75.44;102435.47;5203449;28;20028;-69
2022/05/01 09:46:13;;;;;;;13.98;8.70;;;;;;;17.20;66.68;102423.41;5203684;28;20021;-69
2022/05/01 09:49:04;;;;;;;13.27;8.30;;;;;;;17.64;67.05;102431.13;5203513;28;20483;-70
2022/05/01 09:51:38;;;;;;;15.50;8.50;;;;;;;17.97;62.85;102429.16;5203486;28;20029;-70
2022/05/01 09:54:16;;;;;;;13.30;8.00;;;;;;;17.95;56.10;102425.75;5203984;28;20024;-70
2022/05/01 09:56:51;;;;;;;16.65;10.10;;;;;;;17.30;64.29;102431.38;5206786;28;20018;-70
2022/05/01 09:59:23;;;;;;;15.40;8.95;;;;;;;16.78;67.16;102426.31;5207625;28;20075;-70
2022/05/01 10:02:11;;;;;;;16.60;9.90;;;;;;;16.33;72.75;102429.44;5207395;28;20104;-70
2022/05/01 10:04:44;;;;;;;17.77;9.65;;;;;;;15.70;75.09;102426.16;5207055;28;20025;-70
2022/05/01 10:07:17;;;;;;;19.23;10.82;;;;;;;15.20;74.40;102416.03;5207457;28;20030;-69
2022/05/01 10:09:48;;;;;;;16.52;9.50;;;;;;;15.32;81.19;102422.03;5207145;28;20037;-70
2022/05/01 10:12:22;;;;;;;19.83;9.40;;;;;;;15.79;76.27;102416.22;5207318;28;20025;-70
2022/05/01 10:14:53;;;;;;;19.45;10.27;;;;;;;15.92;81.35;102424.75;5206374;28;20313;-70
2022/05/01 10:17:23;;;;;;;17.52;11.05;;;;;;;16.01;81.41;102423.78;5207296;28;20036;-69
2022/05/01 10:19:54;;;;;;;16.20;10.07;;;;;;;16.30;77.37;102417.06;5207012;28;20028;-70
2022/05/01 10:22:25;;;;;;;18.90;9.90;;;;;;;16.42;73.84;102425.75;5207155;28;20022;-70
2022/05/01 10:24:55;;;;;;;16.88;10.85;;;;;;;16.54;75.70;102413.56;5206688;28;20036;-70
2022/05/01 10:28:03;;;;;;;16.92;10.15;;;;;;;16.87;69.14;102409.06;5206627;28;20060;-70
2022/05/01 10:33:44;;;;;;;16.98;10.13;;;;;;;16.96;77.83;102409.88;5206784;28;20108;-70
2022/05/01 10:36:43;;;;;;;18.63;10.00;;;;;;;16.72;66.37;102400.75;5206900;28;20414;-70
2022/05/01 10:39:15;;;;;;;16.50;9.93;;;;;;;17.22;68.40;102401.53;5191783;28;20037;-70
2022/05/01 10:41:47;;;;;;;16.50;10.27;;;;;;;16.66;65.39;102404.06;5206517;28;20053;-70
2022/05/01 10:44:36;;;;;;;13.73;9.77;;;;;;;16.07;73.77;102397.91;5206571;28;20029;-70
2022/05/01 10:47:12;;;;;;;18.90;9.95;;;;;;;16.60;67.58;102395.78;5206760;28;20025;-70
2022/05/01 10:49:45;;;;;;;13.10;9.20;;;;;;;16.58;70.86;102388.69;5206559;28;20087;-70
2022/05/01 10:52:34;;;;;;;16.33;9.55;;;;;;;16.19;70.09;102401.97;5206037;28;20033;-70
2022/05/01 10:55:05;;;;;;;15.25;9.63;;;;;;;16.69;64.13;102392.91;5206439;28;20022;-70
2022/05/01 10:57:36;;;;;;;14.00;8.75;;;;;;;17.26;61.59;102378.47;5206706;28;20022;-70
2022/05/01 11:00:22;;;;;;;17.25;10.52;;;;;;;16.31;68.21;102384.44;5206342;28;20021;-70
2022/05/01 11:02:56;;;;;;;13.93;9.20;;;;;;;15.28;72.56;102380.94;5206290;28;20037;-70
2022/05/01 11:05:43;;;;;;;18.55;10.23;;;;;;;15.10;72.50;102379.31;5205301;28;20445;-70
2022/05/01 11:08:15;;;;;;;19.35;10.05;;;;;;;15.13;71.17;102374.44;5206260;28;20029;-70
2022/05/01 11:10:47;;;;;;;16.40;9.50;;;;;;;15.58;72.01;102380.59;5206022;28;20022;-70
2022/05/01 11:13:18;;;;;;;15.52;10.15;;;;;;;15.68;71.01;102381.34;5205978;28;20033;-70
2022/05/01 11:15:50;;;;;;;20.83;9.82;;;;;;;15.88;71.99;102371.97;5205707;28;20371;-70
2022/05/01 11:18:28;;;;;;;16.90;8.95;;;;;;;15.80;69.56;102371.91;5206072;28;20025;-70
2022/05/01 11:21:35;;;;;;;15.45;9.02;;;;;;;16.01;72.22;102366.06;5205971;28;20502;-70
2022/05/01 11:24:07;;;;;;;16.75;8.65;;;;;;;16.22;72.65;102363.75;5196802;28;20103;-70
2022/05/01 11:27:16;;;;;;;15.02;8.75;;;;;;;16.19;66.96;102357.81;5204943;28;20048;-70
2022/05/01 11:30:06;;;;;;;14.20;8.70;;;;;;;16.62;68.21;102343.13;5205692;28;20030;-70
2022/05/01 11:33:08;;;;;;;11.13;7.75;;;;;;;17.16;64.34;102342.56;5205677;28;20093;-70
2022/05/01 11:35:57;;;;;;;108.80;50.47;;;;;;;17.25;60.07;102344.25;5204887;28;20060;-70
2022/05/01 11:38:45;;;;;;;20.58;12.60;;;;;;;17.25;59.88;102342.38;5185246;28;20026;-70
2022/05/01 11:41:35;;;;;;;16.98;9.38;;;;;;;17.30;59.47;102342.69;5203696;28;20097;-70
2022/05/01 11:44:24;;;;;;;14.57;8.80;;;;;;;17.58;60.59;102332.25;5205242;28;20022;-70
2022/05/01 11:46:57;;;;;;;16.73;9.93;;;;;;;17.96;59.45;102335.13;5205665;28;20037;-70
2022/05/01 11:49:28;;;;;;;19.30;9.73;;;;;;;18.18;57.23;102329.94;5205247;28;20029;-70
2022/05/01 11:51:58;;;;;;;12.23;8.45;;;;;;;18.50;58.62;102326.09;5200030;28;20022;-70
2022/05/01 11:54:31;;;;;;;13.32;8.48;;;;;;;17.55;58.04;102321.75;5190600;28;20021;-70
2022/05/01 12:02:42;;;;;;;12.07;7.55;;;;;;;17.47;55.30;102310.94;5203124;28;20037;-70
2022/05/01 12:05:12;;;;;;;15.32;8.27;;;;;;;16.91;60.47;102310.09;5201595;28;20053;-71
2022/05/01 12:07:43;;;;;;;15.52;8.38;;;;;;;17.02;58.47;102307.03;5201179;28;20106;-70